createdAt,value
2023-11-01T00:00:44.943Z,10.63
2023-11-01T00:03:13.907Z,10.62
2023-11-01T00:05:40.533Z,10.60
2023-11-01T00:08:07.020Z,10.61
2023-11-01T00:10:33.501Z,10.59
2023-11-01T00:12:59.988Z,10.59
2023-11-01T00:15:26.444Z,10.57
2023-11-01T00:17:53.086Z,10.57
2023-11-01T00:20:19.658Z,10.55
2023-11-01T00:22:46.194Z,10.55
2023-11-01T00:25:12.648Z,10.54
2023-11-01T00:27:39.437Z,10.54
2023-11-01T00:30:06.749Z,10.53
2023-11-01T00:32:33.445Z,10.52
2023-11-01T00:35:00.014Z,10.51
2023-11-01T00:37:26.546Z,10.51
2023-11-01T00:39:53.055Z,10.50
2023-11-01T00:42:19.640Z,10.50
2023-11-01T00:44:46.895Z,10.48
2023-11-01T00:47:13.544Z,10.49
2023-11-01T00:49:40.147Z,10.49
2023-11-01T00:52:06.833Z,10.47
2023-11-01T00:54:33.322Z,10.47
2023-11-01T00:56:59.775Z,10.47
2023-11-01T00:59:26.260Z,10.49
2023-11-01T01:01:53.393Z,10.49
2023-11-01T01:04:19.896Z,10.49
2023-11-01T01:06:46.446Z,10.50
2023-11-01T01:09:13.498Z,10.50
2023-11-01T01:11:40.674Z,10.49
2023-11-01T01:14:07.411Z,10.50
2023-11-01T01:16:35.153Z,10.48
2023-11-01T01:19:02.429Z,10.48
2023-11-01T01:21:29.124Z,10.50
2023-11-01T01:23:55.825Z,10.53
2023-11-01T01:26:22.457Z,10.55
2023-11-01T01:28:49.025Z,10.58
2023-11-01T01:31:15.456Z,10.58
2023-11-01T01:33:45.366Z,10.60
2023-11-01T01:36:12.822Z,10.61
2023-11-01T01:38:39.385Z,10.61
2023-11-01T01:41:06.666Z,10.62
2023-11-01T01:43:33.244Z,10.63
2023-11-01T01:46:09.432Z,10.62
2023-11-01T01:48:37.192Z,10.63
2023-11-01T01:51:05.337Z,10.64
2023-11-01T01:53:37.772Z,10.63
2023-11-01T01:56:07.370Z,10.62
2023-11-01T01:58:36.949Z,10.61
2023-11-01T02:01:05.304Z,10.60
2023-11-01T02:03:32.683Z,10.59
2023-11-01T02:05:59.315Z,10.59
2023-11-01T02:08:26.684Z,10.59
2023-11-01T02:10:53.642Z,10.58
2023-11-01T02:13:20.129Z,10.59
2023-11-01T02:15:47.068Z,10.58
2023-11-01T02:18:13.800Z,10.58
2023-11-01T02:20:46.325Z,10.58
2023-11-01T02:23:13.937Z,10.57
2023-11-01T02:25:42.036Z,10.57
2023-11-01T02:28:10.671Z,10.58
2023-11-01T02:30:37.586Z,10.57
2023-11-01T02:33:04.037Z,10.56
2023-11-01T02:35:30.509Z,10.57
2023-11-01T02:37:57.029Z,10.55
2023-11-01T02:40:23.578Z,10.55
2023-11-01T02:42:56.203Z,10.54
2023-11-01T02:45:23.085Z,10.54
2023-11-01T02:47:52.579Z,10.55
2023-11-01T02:50:20.988Z,10.53
2023-11-01T02:52:48.333Z,10.52
2023-11-01T02:55:16.658Z,10.50
2023-11-01T02:57:44.028Z,10.50
2023-11-01T03:00:19.391Z,10.51
2023-11-01T03:02:48.476Z,10.53
2023-11-01T03:05:18.657Z,10.53
2023-11-01T03:07:45.294Z,10.55
2023-11-01T03:10:12.171Z,10.56
2023-11-01T03:12:43.569Z,10.54
2023-11-01T03:15:12.174Z,10.55
2023-11-01T03:17:39.041Z,10.57
2023-11-01T03:20:07.099Z,10.57
2023-11-01T03:22:36.338Z,10.56
2023-11-01T03:25:04.094Z,10.55
2023-11-01T03:27:30.572Z,10.56
2023-11-01T03:29:59.754Z,10.57
2023-11-01T03:32:26.545Z,10.54
2023-11-01T03:34:53.176Z,10.57
2023-11-01T03:37:19.888Z,10.57
2023-11-01T03:39:46.398Z,10.57
2023-11-01T03:42:12.906Z,10.58
2023-11-01T03:44:39.415Z,10.57
2023-11-01T03:47:06.129Z,10.58
2023-11-01T03:49:32.632Z,10.58
2023-11-01T03:52:00.192Z,10.59
2023-11-01T03:54:26.723Z,10.61
2023-11-01T03:56:53.827Z,10.61
2023-11-01T03:59:20.613Z,10.60
2023-11-01T04:01:47.577Z,10.60
2023-11-01T04:04:14.129Z,10.62
2023-11-01T04:06:40.737Z,10.61
2023-11-01T04:09:11.387Z,10.61
2023-11-01T04:11:38.300Z,10.60
2023-11-01T04:14:04.838Z,10.60
2023-11-01T04:16:31.927Z,10.61
2023-11-01T04:18:59.190Z,10.62
2023-11-01T04:21:25.801Z,10.63
2023-11-01T04:23:56.097Z,10.64
2023-11-01T04:26:22.463Z,10.65
2023-11-01T04:28:49.097Z,10.63
2023-11-01T04:31:16.625Z,10.62
2023-11-01T04:33:43.232Z,10.61
2023-11-01T04:36:10.471Z,10.61
2023-11-01T04:38:38.797Z,10.60
2023-11-01T04:41:10.079Z,10.62
2023-11-01T04:43:37.898Z,10.62
2023-11-01T04:46:05.735Z,10.62
2023-11-01T04:48:32.805Z,10.64
2023-11-01T04:51:00.710Z,10.63
2023-11-01T04:53:28.498Z,10.65
2023-11-01T04:55:55.397Z,10.65
2023-11-01T04:58:22.697Z,10.64
2023-11-01T05:00:50.284Z,10.64
2023-11-01T05:03:18.053Z,10.64
2023-11-01T05:05:44.743Z,10.65
2023-11-01T05:08:11.210Z,10.67
2023-11-01T05:10:37.742Z,10.67
2023-11-01T05:13:06.529Z,10.70
2023-11-01T05:15:35.234Z,10.70
2023-11-01T05:18:01.923Z,10.72
2023-11-01T05:20:28.588Z,10.76
2023-11-01T05:22:55.102Z,10.77
2023-11-01T05:25:22.233Z,10.78
2023-11-01T05:27:48.698Z,10.80
2023-11-01T05:30:16.011Z,10.82
2023-11-01T05:32:46.218Z,10.85
2023-11-01T05:35:13.835Z,10.87
2023-11-01T05:37:40.988Z,10.89
2023-11-01T05:40:14.303Z,10.91
2023-11-01T05:42:45.244Z,10.93
2023-11-01T05:45:19.244Z,10.95
2023-11-01T05:47:53.421Z,10.97
2023-11-01T05:50:25.293Z,10.99
2023-11-01T05:52:53.686Z,11.02
2023-11-01T05:55:26.341Z,11.04
2023-11-01T05:58:00.458Z,11.07
2023-11-01T06:00:26.916Z,11.10
2023-11-01T06:02:53.515Z,11.12
2023-11-01T06:05:23.377Z,11.14
2023-11-01T06:07:50.350Z,11.16
2023-11-01T06:10:16.821Z,11.20
2023-11-01T06:12:43.423Z,11.23
2023-11-01T06:15:11.322Z,11.25
2023-11-01T06:17:39.071Z,11.29
2023-11-01T06:20:07.233Z,11.30
2023-11-01T06:22:34.235Z,11.34
2023-11-01T06:25:01.653Z,11.35
2023-11-01T06:27:29.396Z,11.38
2023-11-01T06:29:56.018Z,11.38
2023-11-01T06:32:22.678Z,11.39
2023-11-01T06:34:49.586Z,11.41
2023-11-01T06:37:16.081Z,11.44
2023-11-01T06:39:42.571Z,11.45
2023-11-01T06:42:09.022Z,11.47
2023-11-01T06:44:35.596Z,11.48
2023-11-01T06:47:02.103Z,11.49
2023-11-01T06:49:31.745Z,11.54
2023-11-01T06:51:58.854Z,11.56
2023-11-01T06:54:25.325Z,11.57
2023-11-01T06:56:51.899Z,11.60
2023-11-01T06:59:18.679Z,11.62
2023-11-01T07:01:45.192Z,11.63
2023-11-01T07:04:12.189Z,11.63
2023-11-01T07:06:39.228Z,11.65
2023-11-01T07:09:06.454Z,11.67
2023-11-01T07:11:33.051Z,11.68
2023-11-01T07:13:59.694Z,11.70
2023-11-01T07:16:26.197Z,11.72
2023-11-01T07:18:52.779Z,11.74
2023-11-01T07:21:19.434Z,11.75
2023-11-01T07:23:45.940Z,11.77
2023-11-01T07:26:12.458Z,11.78
2023-11-01T07:28:38.869Z,11.80
2023-11-01T07:31:05.424Z,11.80
2023-11-01T07:33:32.059Z,11.82
2023-11-01T07:35:58.704Z,11.84
2023-11-01T07:38:25.208Z,11.86
2023-11-01T07:40:51.706Z,11.88
2023-11-01T07:43:18.218Z,11.89
2023-11-01T07:45:45.776Z,11.92
2023-11-01T07:48:12.459Z,11.93
2023-11-01T07:50:41.563Z,11.93
2023-11-01T07:53:08.118Z,11.96
2023-11-01T07:55:34.616Z,11.98
2023-11-01T07:58:01.140Z,11.98
2023-11-01T08:00:27.693Z,11.99
2023-11-01T08:02:54.544Z,12.01
2023-11-01T08:05:21.999Z,12.03
2023-11-01T08:07:48.761Z,12.03
2023-11-01T08:10:15.417Z,12.05
2023-11-01T08:12:41.984Z,12.08
2023-11-01T08:15:09.041Z,12.09
2023-11-01T08:17:35.560Z,12.11
2023-11-01T08:20:02.895Z,12.13
2023-11-01T08:22:29.805Z,12.15
2023-11-01T08:24:56.240Z,12.18
2023-11-01T08:27:22.778Z,12.20
2023-11-01T08:29:49.280Z,12.23
2023-11-01T08:32:15.776Z,12.26
2023-11-01T08:34:42.354Z,12.27
2023-11-01T08:37:08.858Z,12.29
2023-11-01T08:39:35.632Z,12.30
2023-11-01T08:42:03.345Z,12.33
2023-11-01T08:44:29.828Z,12.34
2023-11-01T08:46:56.291Z,12.36
2023-11-01T08:49:22.722Z,12.38
2023-11-01T08:51:49.188Z,12.37
2023-11-01T08:54:17.133Z,12.38
2023-11-01T08:56:43.693Z,12.41
2023-11-01T08:59:10.295Z,12.45
2023-11-01T09:01:36.842Z,12.45
2023-11-01T09:04:03.623Z,12.45
2023-11-01T09:06:32.554Z,12.48
2023-11-01T09:09:00.231Z,12.50
2023-11-01T09:11:26.885Z,12.53
2023-11-01T09:13:53.345Z,12.59
2023-11-01T09:16:21.583Z,12.65
2023-11-01T09:18:48.655Z,12.69
2023-11-01T09:21:15.211Z,12.73
2023-11-01T09:23:41.776Z,12.78
2023-11-01T09:26:10.493Z,12.81
2023-11-01T09:28:37.293Z,12.87
2023-11-01T09:31:03.957Z,12.90
2023-11-01T09:33:30.566Z,12.95
2023-11-01T09:35:57.056Z,13.01
2023-11-01T09:38:24.011Z,13.07
2023-11-01T09:40:52.083Z,13.11
2023-11-01T09:43:22.071Z,13.17
2023-11-01T09:45:48.872Z,13.17
2023-11-01T09:48:16.641Z,13.18
2023-11-01T09:50:44.434Z,13.21
2023-11-01T09:53:10.958Z,13.23
2023-11-01T09:55:37.414Z,13.27
2023-11-01T09:58:04.717Z,13.31
2023-11-01T10:00:32.427Z,13.32
2023-11-01T10:02:59.300Z,13.37
2023-11-01T10:05:25.926Z,13.48
2023-11-01T10:07:52.457Z,13.64
2023-11-01T10:10:19.456Z,13.67
2023-11-01T10:12:46.317Z,13.83
2023-11-01T10:15:20.581Z,14.06
2023-11-01T10:17:48.533Z,14.12
2023-11-01T10:20:25.370Z,14.12
2023-11-01T10:22:52.021Z,14.13
2023-11-01T10:25:18.838Z,14.06
2023-11-01T10:27:45.280Z,14.02
2023-11-01T10:30:12.356Z,14.05
2023-11-01T10:32:38.874Z,14.05
2023-11-01T10:35:12.364Z,14.05
2023-11-01T10:37:38.971Z,14.02
2023-11-01T10:40:07.905Z,13.99
2023-11-01T10:42:39.971Z,13.97
2023-11-01T10:45:07.017Z,13.99
2023-11-01T10:47:35.230Z,13.97
2023-11-01T10:50:04.725Z,13.94
2023-11-01T10:52:32.190Z,13.93
2023-11-01T10:55:01.190Z,13.95
2023-11-01T10:57:28.094Z,13.90
2023-11-01T11:00:05.808Z,13.92
2023-11-01T11:02:42.233Z,13.90
2023-11-01T11:05:14.689Z,13.89
2023-11-01T11:07:49.353Z,13.86
2023-11-01T11:10:25.108Z,13.96
2023-11-01T11:13:10.232Z,14.02
2023-11-01T11:16:00.510Z,14.07
2023-11-01T11:18:29.754Z,14.13
2023-11-01T11:20:57.022Z,14.12
2023-11-01T11:23:34.074Z,14.11
2023-11-01T11:26:02.821Z,14.10
2023-11-01T11:28:42.140Z,14.05
2023-11-01T11:31:12.799Z,14.03
2023-11-01T11:34:01.890Z,14.00
2023-11-01T11:36:29.800Z,14.01
2023-11-01T11:39:04.800Z,14.01
2023-11-01T11:41:37.121Z,13.99
2023-11-01T11:44:23.785Z,13.99
2023-11-01T11:47:00.566Z,14.04
2023-11-01T11:49:30.010Z,14.11
2023-11-01T11:52:05.491Z,14.12
2023-11-01T11:54:33.243Z,14.14
2023-11-01T11:57:08.126Z,14.12
2023-11-01T11:59:36.460Z,14.13
2023-11-01T12:02:16.249Z,14.16
2023-11-01T12:04:45.189Z,14.17
2023-11-01T12:07:19.151Z,14.20
2023-11-01T12:09:49.635Z,14.27
2023-11-01T12:12:16.762Z,14.34
2023-11-01T12:14:44.182Z,14.55
2023-11-01T12:17:10.980Z,14.65
2023-11-01T12:19:47.814Z,14.60
2023-11-01T12:22:15.812Z,14.59
2023-11-01T12:24:43.458Z,14.60
2023-11-01T12:27:12.575Z,14.60
2023-11-01T12:30:05.359Z,14.57
2023-11-01T12:32:32.474Z,14.54
2023-11-01T12:34:59.076Z,14.54
2023-11-01T12:37:36.065Z,14.60
2023-11-01T12:40:19.931Z,14.78
2023-11-01T12:42:50.461Z,14.92
2023-11-01T12:45:18.711Z,15.07
2023-11-01T12:47:55.463Z,15.05
2023-11-01T12:50:24.273Z,15.00
2023-11-01T12:52:51.046Z,15.03
2023-11-01T12:55:18.303Z,15.05
2023-11-01T12:57:48.200Z,14.98
2023-11-01T13:00:16.210Z,15.01
2023-11-01T13:02:43.892Z,15.04
2023-11-01T13:05:12.696Z,15.05
2023-11-01T13:07:40.170Z,15.11
2023-11-01T13:10:08.100Z,15.13
2023-11-01T13:12:34.545Z,15.17
2023-11-01T13:15:01.130Z,15.11
2023-11-01T13:17:28.264Z,15.05
2023-11-01T13:19:57.099Z,14.98
2023-11-01T13:22:25.328Z,14.93
2023-11-01T13:24:51.792Z,14.94
2023-11-01T13:27:18.266Z,15.00
2023-11-01T13:29:45.059Z,14.95
2023-11-01T13:32:11.554Z,14.97
2023-11-01T13:34:38.194Z,14.99
2023-11-01T13:37:05.260Z,14.98
2023-11-01T13:39:32.526Z,14.98
2023-11-01T13:41:59.050Z,14.95
2023-11-01T13:44:25.484Z,14.91
2023-11-01T13:46:52.054Z,14.82
2023-11-01T13:49:18.921Z,14.77
2023-11-01T13:51:45.762Z,14.72
2023-11-01T13:54:12.260Z,14.66
2023-11-01T13:56:38.803Z,14.59
2023-11-01T13:59:05.480Z,14.54
2023-11-01T14:01:32.776Z,14.51
2023-11-01T14:04:00.233Z,14.46
2023-11-01T14:06:27.077Z,14.42
2023-11-01T14:08:55.248Z,14.38
2023-11-01T14:11:25.686Z,14.33
2023-11-01T14:13:55.919Z,14.28
2023-11-01T14:16:22.593Z,14.27
2023-11-01T14:18:49.868Z,14.24
2023-11-01T14:21:17.018Z,14.25
2023-11-01T14:23:45.345Z,14.22
2023-11-01T14:26:12.281Z,14.17
2023-11-01T14:28:38.942Z,14.15
2023-11-01T14:31:05.418Z,14.14
2023-11-01T14:33:34.266Z,14.08
2023-11-01T14:36:00.821Z,14.07
2023-11-01T14:38:27.470Z,14.03
2023-11-01T14:40:53.938Z,14.01
2023-11-01T14:43:20.732Z,13.99
2023-11-01T14:45:47.246Z,13.97
2023-11-01T14:48:13.850Z,13.95
2023-11-01T14:50:40.424Z,13.91
2023-11-01T14:53:08.096Z,13.87
2023-11-01T14:55:34.809Z,13.84
2023-11-01T14:58:01.317Z,13.79
2023-11-01T15:00:27.934Z,13.74
2023-11-01T15:02:54.460Z,13.66
2023-11-01T15:05:21.000Z,13.57
2023-11-01T15:07:47.418Z,13.51
2023-11-01T15:10:14.163Z,13.45
2023-11-01T15:12:41.131Z,13.42
2023-11-01T15:15:09.040Z,13.41
2023-11-01T15:17:35.815Z,13.38
2023-11-01T15:20:02.396Z,13.34
2023-11-01T15:22:29.391Z,13.29
2023-11-01T15:24:56.044Z,13.20
2023-11-01T15:27:25.796Z,13.02
2023-11-01T15:29:52.969Z,12.84
2023-11-01T15:32:19.587Z,12.71
2023-11-01T15:34:48.921Z,12.64
2023-11-01T15:37:15.727Z,12.55
2023-11-01T15:39:42.743Z,12.47
2023-11-01T15:42:10.478Z,12.42
2023-11-01T15:44:37.457Z,12.37
2023-11-01T15:47:04.326Z,12.33
2023-11-01T15:49:30.823Z,12.29
2023-11-01T15:51:59.681Z,12.24
2023-11-01T15:54:27.838Z,12.23
2023-11-01T15:56:54.370Z,12.19
2023-11-01T15:59:20.931Z,12.16
2023-11-01T16:01:51.997Z,12.13
2023-11-01T16:04:18.663Z,12.12
2023-11-01T16:06:45.424Z,12.10
2023-11-01T16:09:14.770Z,12.10
2023-11-01T16:11:41.455Z,12.07
2023-11-01T16:14:08.131Z,12.06
2023-11-01T16:16:35.189Z,12.04
2023-11-01T16:19:01.618Z,12.04
2023-11-01T16:21:28.085Z,12.04
2023-11-01T16:23:54.631Z,12.03
2023-11-01T16:26:22.654Z,12.04
2023-11-01T16:28:49.239Z,12.05
2023-11-01T16:31:15.876Z,12.04
2023-11-01T16:33:42.643Z,12.05
2023-11-01T16:36:09.712Z,12.06
2023-11-01T16:38:36.200Z,12.08
2023-11-01T16:41:02.638Z,12.08
2023-11-01T16:43:29.825Z,12.10
2023-11-01T16:45:56.385Z,12.11
2023-11-01T16:48:22.958Z,12.13
2023-11-01T16:50:49.655Z,12.14
2023-11-01T16:53:16.199Z,12.13
2023-11-01T16:55:42.744Z,12.15
2023-11-01T16:58:09.282Z,12.17
2023-11-01T17:00:37.863Z,12.16
2023-11-01T17:03:04.523Z,12.16
2023-11-01T17:05:31.079Z,12.14
2023-11-01T17:07:57.613Z,12.13
2023-11-01T17:10:24.072Z,12.11
2023-11-01T17:12:50.508Z,12.07
2023-11-01T17:15:25.981Z,12.02
2023-11-01T17:17:55.697Z,12.02
2023-11-01T17:20:23.263Z,11.98
2023-11-01T17:23:02.739Z,11.94
2023-11-01T17:25:31.930Z,11.91
2023-11-01T17:28:00.046Z,11.90
2023-11-01T17:30:26.809Z,11.85
2023-11-01T17:32:55.114Z,11.82
2023-11-01T17:35:22.039Z,11.77
2023-11-01T17:37:51.242Z,11.73
2023-11-01T17:40:18.422Z,11.67
2023-11-01T17:42:44.890Z,11.60
2023-11-01T17:45:13.879Z,11.56
2023-11-01T17:47:44.237Z,11.51
2023-11-01T17:50:11.607Z,11.47
2023-11-01T17:52:41.158Z,11.43
2023-11-01T17:55:09.886Z,11.36
2023-11-01T17:57:38.030Z,11.35
2023-11-01T18:00:05.945Z,11.31
2023-11-01T18:03:15.481Z,11.27
2023-11-01T18:05:45.506Z,11.23
2023-11-01T18:08:16.196Z,11.21
2023-11-01T18:10:50.741Z,11.18
2023-11-01T18:13:20.540Z,11.15
2023-11-01T18:15:48.372Z,11.12
2023-11-01T18:18:56.064Z,11.08
2023-11-01T18:21:29.282Z,11.06
2023-11-01T18:23:58.787Z,11.02
2023-11-01T18:26:26.958Z,11.03
2023-11-01T18:28:54.680Z,11.00
2023-11-01T18:31:49.424Z,10.96
2023-11-01T18:34:24.092Z,10.97
2023-11-01T18:36:53.223Z,10.94
2023-11-01T18:39:24.399Z,10.92
2023-11-01T18:41:51.505Z,10.89
2023-11-01T18:44:24.806Z,10.89
2023-11-01T18:46:52.121Z,10.88
2023-11-01T18:49:56.154Z,10.91
2023-11-01T18:52:25.369Z,10.86
2023-11-01T18:54:53.330Z,10.84
2023-11-01T18:57:29.849Z,10.81
2023-11-01T18:59:56.804Z,10.79
2023-11-01T19:02:29.303Z,10.74
2023-11-01T19:04:59.866Z,10.75
2023-11-01T19:07:33.076Z,10.76
2023-11-01T19:09:59.794Z,10.76
2023-11-01T19:12:30.705Z,10.76
2023-11-01T19:14:57.698Z,10.75
2023-11-01T19:17:24.712Z,10.74
2023-11-01T19:19:51.186Z,10.71
2023-11-01T19:22:18.816Z,10.67
2023-11-01T19:24:45.457Z,10.63
2023-11-01T19:27:18.266Z,10.60
2023-11-01T19:29:50.312Z,10.60
2023-11-01T19:32:16.789Z,10.57
2023-11-01T19:34:43.291Z,10.53
2023-11-01T19:37:10.461Z,10.51
2023-11-01T19:39:36.952Z,10.52
2023-11-01T19:42:03.605Z,10.50
2023-11-01T19:44:30.133Z,10.47
2023-11-01T19:46:56.600Z,10.47
2023-11-01T19:49:23.025Z,10.45
2023-11-01T19:51:49.486Z,10.43
2023-11-01T19:54:15.968Z,10.41
2023-11-01T19:56:42.539Z,10.42
2023-11-01T19:59:10.118Z,10.41
2023-11-01T20:01:36.752Z,10.39
2023-11-01T20:04:03.616Z,10.38
2023-11-01T20:06:30.158Z,10.35
2023-11-01T20:08:56.839Z,10.33
2023-11-01T20:11:23.339Z,10.31
2023-11-01T20:13:49.897Z,10.28
2023-11-01T20:16:25.049Z,10.26
2023-11-01T20:18:54.953Z,10.24
2023-11-01T20:21:21.529Z,10.18
2023-11-01T20:23:48.025Z,10.17
2023-11-01T20:26:14.546Z,10.15
2023-11-01T20:28:40.997Z,10.14
2023-11-01T20:31:07.541Z,10.14
2023-11-01T20:33:34.094Z,10.10
2023-11-01T20:36:02.400Z,10.09
2023-11-01T20:38:28.890Z,10.07
2023-11-01T20:40:55.361Z,10.05
2023-11-01T20:43:21.834Z,10.05
2023-11-01T20:45:48.796Z,10.02
2023-11-01T20:48:15.456Z,10.02
2023-11-01T20:50:41.981Z,10.00
2023-11-01T20:53:08.925Z,9.94
2023-11-01T20:55:35.577Z,9.92
2023-11-01T20:58:04.593Z,9.87
2023-11-01T21:00:31.086Z,9.86
2023-11-01T21:02:58.138Z,9.85
2023-11-01T21:05:24.614Z,9.84
2023-11-01T21:07:51.029Z,9.82
2023-11-01T21:10:19.489Z,9.78
2023-11-01T21:12:46.769Z,9.76
2023-11-01T21:15:13.484Z,9.74
2023-11-01T21:17:41.378Z,9.74
2023-11-01T21:20:10.796Z,9.73
2023-11-01T21:22:41.617Z,9.72
2023-11-01T21:25:08.231Z,9.69
2023-11-01T21:27:34.775Z,9.68
2023-11-01T21:30:01.714Z,9.65
2023-11-01T21:32:28.230Z,9.61
2023-11-01T21:34:54.692Z,9.58
2023-11-01T21:37:21.218Z,9.54
2023-11-01T21:39:47.790Z,9.53
2023-11-01T21:42:14.520Z,9.50
2023-11-01T21:44:41.360Z,9.48
2023-11-01T21:47:11.360Z,9.46
2023-11-01T21:49:38.128Z,9.45
2023-11-01T21:52:16.644Z,9.42
2023-11-01T21:54:43.117Z,9.41
2023-11-01T21:57:11.125Z,9.37
2023-11-01T21:59:38.529Z,9.35
2023-11-01T22:02:07.753Z,9.34
2023-11-01T22:04:36.222Z,9.30
2023-11-01T22:07:02.922Z,9.30
2023-11-01T22:09:29.966Z,9.27
2023-11-01T22:11:56.483Z,9.27
2023-11-01T22:14:31.070Z,9.27
2023-11-01T22:17:02.903Z,9.24
2023-11-01T22:19:33.031Z,9.24
2023-11-01T22:22:08.506Z,9.23
2023-11-01T22:24:39.458Z,9.20
2023-11-01T22:27:10.099Z,9.20
2023-11-01T22:29:45.960Z,9.17
2023-11-01T22:32:26.993Z,9.14
2023-11-01T22:34:54.452Z,9.12
2023-11-01T22:37:23.355Z,9.13
2023-11-01T22:39:53.676Z,9.12
2023-11-01T22:42:23.539Z,9.08
2023-11-01T22:44:50.428Z,9.08
2023-11-01T22:47:17.009Z,9.07
2023-11-01T22:49:43.768Z,9.06
2023-11-01T22:52:11.094Z,9.07
2023-11-01T22:54:38.733Z,9.07
2023-11-01T22:57:05.958Z,9.05
2023-11-01T22:59:32.559Z,9.05
2023-11-01T23:01:59.019Z,9.07
2023-11-01T23:04:25.757Z,9.04
2023-11-01T23:06:52.580Z,9.06
2023-11-01T23:09:19.161Z,9.06
2023-11-01T23:11:45.719Z,9.04
2023-11-01T23:14:12.326Z,9.03
2023-11-01T23:16:40.213Z,9.01
2023-11-01T23:19:07.859Z,9.00
2023-11-01T23:21:34.619Z,8.99
2023-11-01T23:24:01.701Z,8.98
2023-11-01T23:26:46.919Z,8.98
2023-11-01T23:29:18.880Z,8.98
2023-11-01T23:31:47.678Z,8.96
2023-11-01T23:34:51.099Z,8.97
2023-11-01T23:37:37.657Z,8.97
2023-11-01T23:40:25.379Z,8.96
2023-11-01T23:42:52.685Z,8.96
2023-11-01T23:45:34.211Z,8.92
2023-11-01T23:48:05.226Z,8.95
2023-11-01T23:50:34.072Z,8.97
2023-11-01T23:53:02.080Z,8.98
2023-11-01T23:55:28.876Z,8.96
2023-11-01T23:57:55.846Z,8.97
